KACK/ACK METAR and TAF weather

Enter ICAO airport designator
Station Type Date Time Source
KACK METAR 2020/09/26 11:53 UTC NOAA

KACK 261153Z 00000KT M1/4SM R24/0700V1000FT FG VV002 17/16 A3017 RMK AO2 SLP216 T01670161 10172 20161 53006


Station Type Date Time Source
KACK Decoded METAR 2020/09/26 11:53 UTC NOAA

NANTUCKET MEMORIAL AIRPORT, MA, United States (KACK) 41-15N 70-04W 16M
Sep 26, 2020 - 07:53 AM EDT / 2020.09.26 1153 UTC
Wind: Calm (direction variable):0
Visibility: less than 1/4 mile(s):1
Sky conditions: obscured
Weather: fog
Temperature: 62.1 F (16.7 C)
Dew Point: 61.0 F (16.1 C)
Relative Humidity: 96%
Pressure (altimeter): 30.17 in. Hg (1021 hPa)
Pressure tendency: 0.02 inches (0.6 hPa) higher than three hours ago
ob: KACK 261153Z 00000KT M1/4SM R24/0700V1000FT FG VV002 17/16 A3017 RMK AO2 SLP216 T01670161 10172 20161 53006
cycle: 12

Station Type Date Time Source
KACK TAF 2020/09/26 12:28 UTC NOAA

TAF KACK 261125Z 2612/2712 17005KT 1/4SM FG BKN003
FM261400 17006KT 1/2SM FG BKN003
FM261600 17008KT P6SM BKN250
FM262300 16008KT 1 1/2SM BR BKN015
FM270300 16009KT 1/4SM FG OVC008

Example: see airport list